sensor_id;sensor_type;location;lat;lon;timestamp;pressure;altitude;pressure_sealevel;temperature;humidity
60337;BME280;46978;50.288;28.624;2024-02-26T00:00:23;99056.30;;;4.30;100.00
60337;BME280;46978;50.288;28.624;2024-02-26T00:01:24;99052.00;;;4.27;100.00
60337;BME280;46978;50.288;28.624;2024-02-26T00:02:26;99058.02;;;4.29;100.00
60337;BME280;46978;50.288;28.624;2024-02-26T00:03:27;99046.87;;;4.27;100.00
60337;BME280;46978;50.288;28.624;2024-02-26T00:04:29;99049.44;;;4.27;100.00
60337;BME280;46978;50.288;28.624;2024-02-26T00:05:30;99049.44;;;4.27;100.00
60337;BME280;46978;50.288;28.624;2024-02-26T00:06:32;99048.59;;;4.27;100.00
60337;BME280;46978;50.288;28.624;2024-02-26T00:07:34;99056.30;;;4.27;100.00
60337;BME280;46978;50.288;28.624;2024-02-26T00:08:35;99058.86;;;4.25;100.00
60337;BME280;46978;50.288;28.624;2024-02-26T00:09:37;99057.13;;;4.24;100.00
60337;BME280;46978;50.288;28.624;2024-02-26T00:10:39;99056.28;;;4.24;100.00
60337;BME280;46978;50.288;28.624;2024-02-26T00:11:40;99052.87;;;4.22;100.00
60337;BME280;46978;50.288;28.624;2024-02-26T00:12:42;99050.30;;;4.22;100.00
60337;BME280;46978;50.288;28.624;2024-02-26T00:13:43;99047.73;;;4.20;100.00
60337;BME280;46978;50.288;28.624;2024-02-26T00:14:45;99045.16;;;4.17;100.00
60337;BME280;46978;50.288;28.624;2024-02-26T00:15:46;99051.98;;;4.17;100.00
60337;BME280;46978;50.288;28.624;2024-02-26T00:16:48;99045.14;;;4.16;100.00
60337;BME280;46978;50.288;28.624;2024-02-26T00:17:49;99043.42;;;4.15;100.00
60337;BME280;46978;50.288;28.624;2024-02-26T00:18:51;99049.39;;;4.12;100.00
60337;BME280;46978;50.288;28.624;2024-02-26T00:19:52;99044.25;;;4.09;100.00
60337;BME280;46978;50.288;28.624;2024-02-26T00:20:54;99043.41;;;4.08;100.00
60337;BME280;46978;50.288;28.624;2024-02-26T00:21:56;99045.97;;;4.07;100.00
60337;BME280;46978;50.288;28.624;2024-02-26T00:22:57;99042.55;;;4.06;100.00
60337;BME280;46978;50.288;28.624;2024-02-26T00:23:59;99043.40;;;4.05;100.00
60337;BME280;46978;50.288;28.624;2024-02-26T00:25:00;99045.95;;;4.04;100.00
60337;BME280;46978;50.288;28.624;2024-02-26T00:26:02;99043.38;;;4.01;100.00
60337;BME280;46978;50.288;28.624;2024-02-26T00:27:04;99045.11;;;4.02;100.00
60337;BME280;46978;50.288;28.624;2024-02-26T00:28:06;99036.52;;;3.98;100.00
60337;BME280;46978;50.288;28.624;2024-02-26T00:29:07;99029.69;;;3.95;100.00
60337;BME280;46978;50.288;28.624;2024-02-26T00:30:10;99036.54;;;3.95;100.00
60337;BME280;46978;50.288;28.624;2024-02-26T00:31:12;99028.83;;;3.92;100.00
60337;BME280;46978;50.288;28.624;2024-02-26T00:32:14;99039.09;;;3.92;100.00
60337;BME280;46978;50.288;28.624;2024-02-26T00:33:16;99036.52;;;3.89;100.00
60337;BME280;46978;50.288;28.624;2024-02-26T00:34:18;99044.21;;;3.87;100.00
60337;BME280;46978;50.288;28.624;2024-02-26T00:35:19;99033.94;;;3.86;100.00
60337;BME280;46978;50.288;28.624;2024-02-26T00:36:21;99040.77;;;3.85;100.00
60337;BME280;46978;50.288;28.624;2024-02-26T00:37:23;99030.48;;;3.84;100.00
60337;BME280;46978;50.288;28.624;2024-02-26T00:38:24;99036.50;;;3.83;100.00
60337;BME280;46978;50.288;28.624;2024-02-26T00:39:26;99032.20;;;3.82;100.00
60337;BME280;46978;50.288;28.624;2024-02-26T00:40:27;99032.20;;;3.80;100.00
60337;BME280;46978;50.288;28.624;2024-02-26T00:41:29;99031.35;;;3.80;100.00
60337;BME280;46978;50.288;28.624;2024-02-26T00:42:31;99028.78;;;3.78;100.00
60337;BME280;46978;50.288;28.624;2024-02-26T00:43:32;99027.05;;;3.77;100.00
60337;BME280;46978;50.288;28.624;2024-02-26T00:44:34;99022.75;;;3.74;100.00
60337;BME280;46978;50.288;28.624;2024-02-26T00:45:35;99030.45;;;3.74;100.00
60337;BME280;46978;50.288;28.624;2024-02-26T00:46:37;99023.63;;;3.73;100.00
60337;BME280;46978;50.288;28.624;2024-02-26T00:47:39;99022.74;;;3.71;100.00
60337;BME280;46978;50.288;28.624;2024-02-26T00:48:40;99027.02;;;3.69;100.00
60337;BME280;46978;50.288;28.624;2024-02-26T00:49:42;99022.72;;;3.67;100.00
60337;BME280;46978;50.288;28.624;2024-02-26T00:50:43;99026.16;;;3.67;100.00
60337;BME280;46978;50.288;28.624;2024-02-26T00:51:45;99024.44;;;3.66;100.00
60337;BME280;46978;50.288;28.624;2024-02-26T00:52:46;99029.56;;;3.65;100.00
60337;BME280;46978;50.288;28.624;2024-02-26T00:53:48;99023.59;;;3.64;100.00
60337;BME280;46978;50.288;28.624;2024-02-26T00:54:49;99028.72;;;3.63;100.00
60337;BME280;46978;50.288;28.624;2024-02-26T00:55:51;99021.00;;;3.58;100.00
60337;BME280;46978;50.288;28.624;2024-02-26T00:56:53;99013.30;;;3.58;100.00
60337;BME280;46978;50.288;28.624;2024-02-26T00:57:54;99021.84;;;3.57;100.00
60337;BME280;46978;50.288;28.624;2024-02-26T00:58:56;99020.11;;;3.56;100.00
60337;BME280;46978;50.288;28.624;2024-02-26T00:59:57;99024.39;;;3.55;100.00
60337;BME280;46978;50.288;28.624;2024-02-26T01:00:59;99018.42;;;3.55;100.00
60337;BME280;46978;50.288;28.624;2024-02-26T01:02:01;99005.58;;;3.52;100.00
60337;BME280;46978;50.288;28.624;2024-02-26T01:03:02;99013.28;;;3.53;100.00
60337;BME280;46978;50.288;28.624;2024-02-26T01:04:04;99018.41;;;3.52;100.00
60337;BME280;46978;50.288;28.624;2024-02-26T01:05:06;99015.83;;;3.50;100.00
60337;BME280;46978;50.288;28.624;2024-02-26T01:06:08;99018.39;;;3.49;100.00
60337;BME280;46978;50.288;28.624;2024-02-26T01:07:10;99012.38;;;3.48;100.00
60337;BME280;46978;50.288;28.624;2024-02-26T01:08:11;99014.94;;;3.47;100.00
60337;BME280;46978;50.288;28.624;2024-02-26T01:09:13;99019.22;;;3.46;100.00
60337;BME280;46978;50.288;28.624;2024-02-26T01:10:15;99020.94;;;3.46;100.00
60337;BME280;46978;50.288;28.624;2024-02-26T01:11:16;99016.64;;;3.45;100.00
60337;BME280;46978;50.288;28.624;2024-02-26T01:12:18;99010.67;;;3.44;100.00
60337;BME280;46978;50.288;28.624;2024-02-26T01:13:19;99013.23;;;3.44;100.00
60337;BME280;46978;50.288;28.624;2024-02-26T01:14:21;99006.38;;;3.41;100.00
60337;BME280;46978;50.288;28.624;2024-02-26T01:15:22;99001.23;;;3.40;100.00
60337;BME280;46978;50.288;28.624;2024-02-26T01:16:24;99007.21;;;3.40;100.00
60337;BME280;46978;50.288;28.624;2024-02-26T01:17:25;99008.92;;;3.40;100.00
60337;BME280;46978;50.288;28.624;2024-02-26T01:18:27;99005.52;;;3.39;100.00
60337;BME280;46978;50.288;28.624;2024-02-26T01:19:28;99003.79;;;3.38;100.00
60337;BME280;46978;50.288;28.624;2024-02-26T01:20:30;98998.66;;;3.38;100.00
60337;BME280;46978;50.288;28.624;2024-02-26T01:21:32;99000.38;;;3.38;100.00
60337;BME280;46978;50.288;28.624;2024-02-26T01:22:33;98996.93;;;3.36;100.00
60337;BME280;46978;50.288;28.624;2024-02-26T01:23:35;98995.24;;;3.36;100.00
60337;BME280;46978;50.288;28.624;2024-02-26T01:24:36;98991.79;;;3.34;100.00
60337;BME280;46978;50.288;28.624;2024-02-26T01:25:38;98999.49;;;3.36;100.00
60337;BME280;46978;50.288;28.624;2024-02-26T01:26:40;99000.38;;;3.36;100.00
60337;BME280;46978;50.288;28.624;2024-02-26T01:27:41;99003.78;;;3.37;100.00
60337;BME280;46978;50.288;28.624;2024-02-26T01:29:02;98995.24;;;3.36;100.00
60337;BME280;46978;50.288;28.624;2024-02-26T01:30:06;98998.64;;;3.35;100.00
60337;BME280;46978;50.288;28.624;2024-02-26T01:31:09;98994.36;;;3.34;100.00
60337;BME280;46978;50.288;28.624;2024-02-26T01:32:11;98990.91;;;3.28;100.00
60337;BME280;46978;50.288;28.624;2024-02-26T01:33:12;98994.34;;;3.31;100.00
60337;BME280;46978;50.288;28.624;2024-02-26T01:34:13;98993.49;;;3.31;100.00
60337;BME280;46978;50.288;28.624;2024-02-26T01:35:15;98996.06;;;3.31;100.00
60337;BME280;46978;50.288;28.624;2024-02-26T01:36:17;98994.34;;;3.31;100.00
60337;BME280;46978;50.288;28.624;2024-02-26T01:37:19;99011.44;;;3.31;100.00
60337;BME280;46978;50.288;28.624;2024-02-26T01:38:20;99008.03;;;3.30;100.00
60337;BME280;46978;50.288;28.624;2024-02-26T01:39:22;98999.46;;;3.30;100.00
60337;BME280;46978;50.288;28.624;2024-02-26T01:40:29;99005.47;;;3.30;100.00
60337;BME280;46978;50.288;28.624;2024-02-26T01:41:30;99007.16;;;3.30;100.00
60337;BME280;46978;50.288;28.624;2024-02-26T01:42:32;99009.72;;;3.30;100.00
60337;BME280;46978;50.288;28.624;2024-02-26T01:43:34;99008.88;;;3.29;100.00
60337;BME280;46978;50.288;28.624;2024-02-26T01:44:35;99014.84;;;3.30;100.00
60337;BME280;46978;50.288;28.624;2024-02-26T01:45:37;99013.16;;;3.30;100.00
60337;BME280;46978;50.288;28.624;2024-02-26T01:46:38;99011.44;;;3.29;100.00
60337;BME280;46978;50.288;28.624;2024-02-26T01:47:40;99019.12;;;3.28;100.00
60337;BME280;46978;50.288;28.624;2024-02-26T01:48:43;99017.39;;;3.27;100.00
60337;BME280;46978;50.288;28.624;2024-02-26T01:49:45;99009.69;;;3.25;100.00
60337;BME280;46978;50.288;28.624;2024-02-26T01:50:47;99009.69;;;3.25;100.00
60337;BME280;46978;50.288;28.624;2024-02-26T01:51:49;99015.70;;;3.26;100.00
60337;BME280;46978;50.288;28.624;2024-02-26T01:52:51;99008.84;;;3.25;100.00
60337;BME280;46978;50.288;28.624;2024-02-26T01:53:53;99007.11;;;3.22;100.00
60337;BME280;46978;50.288;28.624;2024-02-26T01:54:55;99012.23;;;3.22;100.00
60337;BME280;46978;50.288;28.624;2024-02-26T01:55:56;99011.40;;;3.23;100.00
60337;BME280;46978;50.288;28.624;2024-02-26T01:56:58;99018.25;;;3.24;100.00
60337;BME280;46978;50.288;28.624;2024-02-26T01:58:00;99008.84;;;3.23;100.00
60337;BME280;46978;50.288;28.624;2024-02-26T01:59:03;99008.83;;;3.21;100.00
60337;BME280;46978;50.288;28.624;2024-02-26T02:00:08;99002.85;;;3.21;100.00
60337;BME280;46978;50.288;28.624;2024-02-26T02:01:10;99011.38;;;3.20;100.00
60337;BME280;46978;50.288;28.624;2024-02-26T02:02:11;99007.10;;;3.20;100.00
60337;BME280;46978;50.288;28.624;2024-02-26T02:03:14;99000.27;;;3.18;100.00
60337;BME280;46978;50.288;28.624;2024-02-26T02:04:16;99009.66;;;3.19;100.00
60337;BME280;46978;50.288;28.624;2024-02-26T02:05:18;99002.84;;;3.18;100.00
60337;BME280;46978;50.288;28.624;2024-02-26T02:06:22;98995.98;;;3.17;100.00
60337;BME280;46978;50.288;28.624;2024-02-26T02:07:24;98995.12;;;3.13;100.00
60337;BME280;46978;50.288;28.624;2024-02-26T02:08:26;99000.24;;;3.13;100.00
60337;BME280;46978;50.288;28.624;2024-02-26T02:09:28;98992.55;;;3.12;100.00
60337;BME280;46978;50.288;28.624;2024-02-26T02:10:30;98995.09;;;3.10;100.00
60337;BME280;46978;50.288;28.624;2024-02-26T02:11:35;98990.81;;;3.09;100.00
60337;BME280;46978;50.288;28.624;2024-02-26T02:12:36;98992.52;;;3.07;100.00
60337;BME280;46978;50.288;28.624;2024-02-26T02:13:38;98990.80;;;3.08;100.00
60337;BME280;46978;50.288;28.624;2024-02-26T02:14:39;98998.48;;;3.06;100.00
60337;BME280;46978;50.288;28.624;2024-02-26T02:15:41;98986.50;;;3.05;100.00
60337;BME280;46978;50.288;28.624;2024-02-26T02:16:43;98986.50;;;3.05;100.00
60337;BME280;46978;50.288;28.624;2024-02-26T02:17:44;98990.78;;;3.04;100.00
60337;BME280;46978;50.288;28.624;2024-02-26T02:18:46;98991.62;;;3.03;100.00
60337;BME280;46978;50.288;28.624;2024-02-26T02:19:49;98991.61;;;3.02;100.00
60337;BME280;46978;50.288;28.624;2024-02-26T02:20:50;98988.20;;;3.03;100.00
60337;BME280;46978;50.288;28.624;2024-02-26T02:21:52;98989.92;;;3.02;100.00
60337;BME280;46978;50.288;28.624;2024-02-26T02:22:53;98990.77;;;3.03;100.00
60337;BME280;46978;50.288;28.624;2024-02-26T02:23:55;98990.77;;;3.01;100.00
60337;BME280;46978;50.288;28.624;2024-02-26T02:24:56;98985.64;;;3.01;100.00
60337;BME280;46978;50.288;28.624;2024-02-26T02:25:58;98992.48;;;3.02;100.00
60337;BME280;46978;50.288;28.624;2024-02-26T02:27:00;98989.92;;;3.02;100.00
60337;BME280;46978;50.288;28.624;2024-02-26T02:28:03;98995.05;;;3.02;100.00
60337;BME280;46978;50.288;28.624;2024-02-26T02:29:05;99000.18;;;3.02;100.00
60337;BME280;46978;50.288;28.624;2024-02-26T02:30:09;98998.45;;;3.01;100.00
60337;BME280;46978;50.288;28.624;2024-02-26T02:31:12;99000.18;;;3.02;100.00
60337;BME280;46978;50.288;28.624;2024-02-26T02:32:14;99007.00;;;3.03;100.00
60337;BME280;46978;50.288;28.624;2024-02-26T02:33:17;99008.72;;;3.04;100.00
60337;BME280;46978;50.288;28.624;2024-02-26T02:34:19;99008.72;;;3.04;100.00
60337;BME280;46978;50.288;28.624;2024-02-26T02:35:21;99016.41;;;3.04;100.00
60337;BME280;46978;50.288;28.624;2024-02-26T02:36:22;99011.28;;;3.04;100.00
60337;BME280;46978;50.288;28.624;2024-02-26T02:37:24;99007.00;;;3.03;100.00
60337;BME280;46978;50.288;28.624;2024-02-26T02:38:25;99007.89;;;3.05;100.00
60337;BME280;46978;50.288;28.624;2024-02-26T02:39:27;99008.72;;;3.04;100.00
60337;BME280;46978;50.288;28.624;2024-02-26T02:40:28;99010.45;;;3.05;100.00
60337;BME280;46978;50.288;28.624;2024-02-26T02:41:30;99003.61;;;3.06;100.00
60337;BME280;46978;50.288;28.624;2024-02-26T02:42:32;99013.02;;;3.07;100.00
60337;BME280;46978;50.288;28.624;2024-02-26T02:43:33;99005.34;;;3.07;100.00
60337;BME280;46978;50.288;28.624;2024-02-26T02:44:35;99000.20;;;3.05;100.00
60337;BME280;46978;50.288;28.624;2024-02-26T02:45:36;99001.03;;;3.04;100.00
60337;BME280;46978;50.288;28.624;2024-02-26T02:46:38;99003.58;;;3.01;100.00
60337;BME280;46978;50.288;28.624;2024-02-26T02:47:40;99013.83;;;3.01;100.00
60337;BME280;46978;50.288;28.624;2024-02-26T02:48:42;99009.54;;;3.00;100.00
60337;BME280;46978;50.288;28.624;2024-02-26T02:49:44;99013.82;;;3.00;100.00
60337;BME280;46978;50.288;28.624;2024-02-26T02:50:45;99020.66;;;2.99;100.00
60337;BME280;46978;50.288;28.624;2024-02-26T02:51:47;99019.78;;;2.99;100.00
60337;BME280;46978;50.288;28.624;2024-02-26T02:52:48;99017.20;;;2.97;100.00
60337;BME280;46978;50.288;28.624;2024-02-26T02:53:50;99022.33;;;2.96;100.00
60337;BME280;46978;50.288;28.624;2024-02-26T02:54:51;99017.19;;;2.94;100.00
60337;BME280;46978;50.288;28.624;2024-02-26T02:55:53;99023.19;;;2.93;100.00
60337;BME280;46978;50.288;28.624;2024-02-26T02:56:54;99021.47;;;2.94;100.00
60337;BME280;46978;50.288;28.624;2024-02-26T02:57:56;99022.30;;;2.93;100.00
60337;BME280;46978;50.288;28.624;2024-02-26T02:58:57;99021.45;;;2.91;100.00
60337;BME280;46978;50.288;28.624;2024-02-26T02:59:59;99018.05;;;2.92;100.00
60337;BME280;46978;50.288;28.624;2024-02-26T03:01:01;99021.45;;;2.91;100.00
60337;BME280;46978;50.288;28.624;2024-02-26T03:02:03;99026.57;;;2.91;100.00
60337;BME280;46978;50.288;28.624;2024-02-26T03:03:04;99025.71;;;2.89;100.00
60337;BME280;46978;50.288;28.624;2024-02-26T03:04:06;99024.00;;;2.89;100.00
60337;BME280;46978;50.288;28.624;2024-02-26T03:05:08;99022.27;;;2.88;100.00
60337;BME280;46978;50.288;28.624;2024-02-26T03:06:10;99034.25;;;2.89;100.00
60337;BME280;46978;50.288;28.624;2024-02-26T03:07:11;99031.69;;;2.89;100.00
60337;BME280;46978;50.288;28.624;2024-02-26T03:08:13;99041.09;;;2.89;100.00
60337;BME280;46978;50.288;28.624;2024-02-26T03:09:14;99048.77;;;2.89;100.00
60337;BME280;46978;50.288;28.624;2024-02-26T03:10:17;99044.48;;;2.87;100.00
60337;BME280;46978;50.288;28.624;2024-02-26T03:11:18;99041.91;;;2.86;100.00
60337;BME280;46978;50.288;28.624;2024-02-26T03:12:20;99048.77;;;2.87;100.00
60337;BME280;46978;50.288;28.624;2024-02-26T03:13:21;99049.59;;;2.86;100.00
60337;BME280;46978;50.288;28.624;2024-02-26T03:14:23;99050.44;;;2.85;100.00
60337;BME280;46978;50.288;28.624;2024-02-26T03:15:25;99052.15;;;2.84;100.00
60337;BME280;46978;50.288;28.624;2024-02-26T03:16:26;99060.69;;;2.85;100.00
60337;BME280;46978;50.288;28.624;2024-02-26T03:17:31;99060.69;;;2.85;100.00
60337;BME280;46978;50.288;28.624;2024-02-26T03:18:32;99058.98;;;2.84;100.00
60337;BME280;46978;50.288;28.624;2024-02-26T03:19:34;99058.98;;;2.84;100.00
60337;BME280;46978;50.288;28.624;2024-02-26T03:20:36;99053.86;;;2.84;100.00
60337;BME280;46978;50.288;28.624;2024-02-26T03:21:37;99055.55;;;2.83;100.00
60337;BME280;46978;50.288;28.624;2024-02-26T03:22:39;99055.55;;;2.83;100.00
60337;BME280;46978;50.288;28.624;2024-02-26T03:23:41;99052.12;;;2.81;100.00
60337;BME280;46978;50.288;28.624;2024-02-26T03:24:42;99061.53;;;2.81;100.00
60337;BME280;46978;50.288;28.624;2024-02-26T03:25:44;99057.23;;;2.80;100.00
60337;BME280;46978;50.288;28.624;2024-02-26T03:26:46;99057.23;;;2.80;100.00
60337;BME280;46978;50.288;28.624;2024-02-26T03:27:48;99062.33;;;2.77;100.00
60337;BME280;46978;50.288;28.624;2024-02-26T03:28:49;99061.48;;;2.76;100.00
60337;BME280;46978;50.288;28.624;2024-02-26T03:29:51;99063.19;;;2.77;100.00
60337;BME280;46978;50.288;28.624;2024-02-26T03:30:52;99066.62;;;2.78;100.00
60337;BME280;46978;50.288;28.624;2024-02-26T03:31:54;99058.06;;;2.77;100.00
60337;BME280;46978;50.288;28.624;2024-02-26T03:32:55;99059.78;;;2.78;100.00
60337;BME280;46978;50.288;28.624;2024-02-26T03:33:57;99055.50;;;2.77;100.00
60337;BME280;46978;50.288;28.624;2024-02-26T03:34:59;99055.47;;;2.74;100.00
60337;BME280;46978;50.288;28.624;2024-02-26T03:36:00;99050.33;;;2.73;100.00
60337;BME280;46978;50.288;28.624;2024-02-26T03:37:02;99041.81;;;2.74;100.00
60337;BME280;46978;50.288;28.624;2024-02-26T03:38:04;99049.48;;;2.72;100.00
60337;BME280;46978;50.288;28.624;2024-02-26T03:39:05;99040.94;;;2.70;100.00
60337;BME280;46978;50.288;28.624;2024-02-26T03:40:08;99042.61;;;2.68;100.00
60337;BME280;46978;50.288;28.624;2024-02-26T03:41:09;99048.61;;;2.68;100.00
60337;BME280;46978;50.288;28.624;2024-02-26T03:42:11;99043.48;;;2.68;100.00
60337;BME280;46978;50.288;28.624;2024-02-26T03:43:13;99042.63;;;2.69;100.00
60337;BME280;46978;50.288;28.624;2024-02-26T03:44:14;99044.33;;;2.67;100.00
60337;BME280;46978;50.288;28.624;2024-02-26T03:45:16;99042.63;;;2.69;100.00
60337;BME280;46978;50.288;28.624;2024-02-26T03:46:18;99046.89;;;2.69;100.00
60337;BME280;46978;50.288;28.624;2024-02-26T03:47:19;99047.73;;;2.68;100.00
60337;BME280;46978;50.288;28.624;2024-02-26T03:48:21;99029.78;;;2.66;100.00
60337;BME280;46978;50.288;28.624;2024-02-26T03:49:22;99041.77;;;2.67;100.00
60337;BME280;46978;50.288;28.624;2024-02-26T03:50:24;99037.48;;;2.68;100.00
60337;BME280;46978;50.288;28.624;2024-02-26T03:51:26;99035.78;;;2.65;100.00
60337;BME280;46978;50.288;28.624;2024-02-26T03:52:27;99035.78;;;2.65;100.00
60337;BME280;46978;50.288;28.624;2024-02-26T03:53:29;99031.48;;;2.64;100.00
60337;BME280;46978;50.288;28.624;2024-02-26T03:54:30;99040.89;;;2.64;100.00
60337;BME280;46978;50.288;28.624;2024-02-26T03:55:33;99041.72;;;2.63;100.00
60337;BME280;46978;50.288;28.624;2024-02-26T03:56:35;99041.72;;;2.63;100.00
60337;BME280;46978;50.288;28.624;2024-02-26T03:57:36;99035.75;;;2.62;100.00
60337;BME280;46978;50.288;28.624;2024-02-26T03:58:38;99037.47;;;2.62;100.00
60337;BME280;46978;50.288;28.624;2024-02-26T03:59:39;99043.44;;;2.62;100.00
60337;BME280;46978;50.288;28.624;2024-02-26T04:00:42;99045.15;;;2.62;100.00
60337;BME280;46978;50.288;28.624;2024-02-26T04:01:47;99042.59;;;2.62;100.00
60337;BME280;46978;50.288;28.624;2024-02-26T04:02:48;99041.70;;;2.61;100.00
60337;BME280;46978;50.288;28.624;2024-02-26T04:03:50;99040.86;;;2.61;100.00
60337;BME280;46978;50.288;28.624;2024-02-26T04:04:51;99041.70;;;2.60;100.00
60337;BME280;46978;50.288;28.624;2024-02-26T04:05:53;99047.69;;;2.59;100.00
60337;BME280;46978;50.288;28.624;2024-02-26T04:06:55;99043.41;;;2.59;100.00
60337;BME280;46978;50.288;28.624;2024-02-26T04:07:56;99051.92;;;2.58;100.00
60337;BME280;46978;50.288;28.624;2024-02-26T04:08:58;99056.19;;;2.56;100.00
60337;BME280;46978;50.288;28.624;2024-02-26T04:09:59;99051.06;;;2.56;100.00
60337;BME280;46978;50.288;28.624;2024-02-26T04:11:01;99054.48;;;2.57;100.00
60337;BME280;46978;50.288;28.624;2024-02-26T04:12:03;99059.59;;;2.57;100.00
60337;BME280;46978;50.288;28.624;2024-02-26T04:13:06;99058.75;;;2.56;100.00
60337;BME280;46978;50.288;28.624;2024-02-26T04:14:08;99053.63;;;2.56;100.00
60337;BME280;46978;50.288;28.624;2024-02-26T04:15:10;99051.91;;;2.57;100.00
60337;BME280;46978;50.288;28.624;2024-02-26T04:16:12;99057.91;;;2.56;100.00
60337;BME280;46978;50.288;28.624;2024-02-26T04:17:13;99055.33;;;2.54;100.00
60337;BME280;46978;50.288;28.624;2024-02-26T04:18:15;99054.46;;;2.55;100.00
60337;BME280;46978;50.288;28.624;2024-02-26T04:19:16;99061.30;;;2.55;100.00
60337;BME280;46978;50.288;28.624;2024-02-26T04:20:18;99057.89;;;2.54;100.00
60337;BME280;46978;50.288;28.624;2024-02-26T04:21:20;99056.99;;;2.52;100.00
60337;BME280;46978;50.288;28.624;2024-02-26T04:22:22;99062.12;;;2.52;100.00
60337;BME280;46978;50.288;28.624;2024-02-26T04:23:24;99063.81;;;2.50;100.00
60337;BME280;46978;50.288;28.624;2024-02-26T04:24:25;99061.23;;;2.48;100.00
60337;BME280;46978;50.288;28.624;2024-02-26T04:25:28;99062.95;;;2.48;100.00
60337;BME280;46978;50.288;28.624;2024-02-26T04:26:30;99060.39;;;2.48;100.00
60337;BME280;46978;50.288;28.624;2024-02-26T04:27:32;99062.09;;;2.49;100.00
60337;BME280;46978;50.288;28.624;2024-02-26T04:28:33;99062.97;;;2.49;100.00
60337;BME280;46978;50.288;28.624;2024-02-26T04:29:35;99061.27;;;2.51;100.00
60337;BME280;46978;50.288;28.624;2024-02-26T04:30:37;99057.88;;;2.53;100.00
60337;BME280;46978;50.288;28.624;2024-02-26T04:31:38;99060.45;;;2.54;100.00
60337;BME280;46978;50.288;28.624;2024-02-26T04:32:40;99050.20;;;2.54;100.00
60337;BME280;46978;50.288;28.624;2024-02-26T04:33:41;99051.88;;;2.54;100.00
60337;BME280;46978;50.288;28.624;2024-02-26T04:34:43;99052.75;;;2.53;100.00
60337;BME280;46978;50.288;28.624;2024-02-26T04:35:44;99058.70;;;2.51;100.00
60337;BME280;46978;50.288;28.624;2024-02-26T04:36:46;99052.72;;;2.49;100.00
60337;BME280;46978;50.288;28.624;2024-02-26T04:37:48;99058.69;;;2.50;100.00
60337;BME280;46978;50.288;28.624;2024-02-26T04:38:49;99056.13;;;2.50;100.00
60337;BME280;46978;50.288;28.624;2024-02-26T04:39:50;99062.97;;;2.49;100.00
60337;BME280;46978;50.288;28.624;2024-02-26T04:40:52;99063.80;;;2.48;100.00
60337;BME280;46978;50.288;28.624;2024-02-26T04:41:54;99065.52;;;2.48;100.00
60337;BME280;46978;50.288;28.624;2024-02-26T04:42:55;99065.52;;;2.48;100.00
60337;BME280;46978;50.288;28.624;2024-02-26T04:43:57;99067.20;;;2.49;100.00
60337;BME280;46978;50.288;28.624;2024-02-26T04:44:58;99068.08;;;2.48;100.00
60337;BME280;46978;50.288;28.624;2024-02-26T04:46:00;99060.39;;;2.48;100.00
60337;BME280;46978;50.288;28.624;2024-02-26T04:47:01;99062.09;;;2.49;100.00
60337;BME280;46978;50.288;28.624;2024-02-26T04:48:03;99054.41;;;2.49;100.00
60337;BME280;46978;50.288;28.624;2024-02-26T04:49:04;99062.09;;;2.49;100.00
60337;BME280;46978;50.288;28.624;2024-02-26T04:50:07;99059.52;;;2.49;100.00
60337;BME280;46978;50.288;28.624;2024-02-26T04:51:09;99067.20;;;2.49;100.00
60337;BME280;46978;50.288;28.624;2024-02-26T04:52:11;99061.23;;;2.48;100.00
60337;BME280;46978;50.288;28.624;2024-02-26T04:53:13;99056.97;;;2.49;100.00
60337;BME280;46978;50.288;28.624;2024-02-26T04:54:14;99061.23;;;2.48;100.00
60337;BME280;46978;50.288;28.624;2024-02-26T04:55:16;99063.81;;;2.50;100.00
60337;BME280;46978;50.288;28.624;2024-02-26T04:56:18;99052.70;;;2.48;100.00
60337;BME280;46978;50.288;28.624;2024-02-26T04:57:21;99050.13;;;2.46;100.00
60337;BME280;46978;50.288;28.624;2024-02-26T04:58:22;99060.38;;;2.46;100.00
60337;BME280;46978;50.288;28.624;2024-02-26T04:59:24;99053.53;;;2.45;100.00
60337;BME280;46978;50.288;28.624;2024-02-26T05:00:25;99053.53;;;2.45;100.00
60337;BME280;46978;50.288;28.624;2024-02-26T05:01:27;99062.94;;;2.46;100.00
60337;BME280;46978;50.288;28.624;2024-02-26T05:02:28;99059.50;;;2.46;100.00
60337;BME280;46978;50.288;28.624;2024-02-26T05:03:30;99060.38;;;2.46;100.00
60337;BME280;46978;50.288;28.624;2024-02-26T05:04:31;99057.83;;;2.48;100.00
60337;BME280;46978;50.288;28.624;2024-02-26T05:05:33;99059.52;;;2.47;100.00
60337;BME280;46978;50.288;28.624;2024-02-26T05:06:36;99063.80;;;2.48;100.00
60337;BME280;46978;50.288;28.624;2024-02-26T05:07:41;99051.84;;;2.49;100.00
60337;BME280;46978;50.288;28.624;2024-02-26T05:08:43;99056.13;;;2.50;100.00
60337;BME280;46978;50.288;28.624;2024-02-26T05:09:45;99060.42;;;2.51;100.00
60337;BME280;46978;50.288;28.624;2024-02-26T05:10:46;99054.42;;;2.50;100.00
60337;BME280;46978;50.288;28.624;2024-02-26T05:11:48;99051.88;;;2.52;100.00
60337;BME280;46978;50.288;28.624;2024-02-26T05:12:50;99060.44;;;2.53;100.00
60337;BME280;46978;50.288;28.624;2024-02-26T05:13:51;99058.72;;;2.53;100.00
60337;BME280;46978;50.288;28.624;2024-02-26T05:14:53;99058.72;;;2.53;100.00
60337;BME280;46978;50.288;28.624;2024-02-26T05:15:54;99061.30;;;2.55;100.00
60337;BME280;46978;50.288;28.624;2024-02-26T05:16:56;99061.31;;;2.56;100.00
60337;BME280;46978;50.288;28.624;2024-02-26T05:17:58;99063.86;;;2.55;100.00
60337;BME280;46978;50.288;28.624;2024-02-26T05:18:59;99061.28;;;2.53;100.00
60337;BME280;46978;50.288;28.624;2024-02-26T05:20:01;99063.02;;;2.56;100.00
60337;BME280;46978;50.288;28.624;2024-02-26T05:21:02;99063.87;;;2.56;100.00
60337;BME280;46978;50.288;28.624;2024-02-26T05:22:04;99056.19;;;2.56;100.00
60337;BME280;46978;50.288;28.624;2024-02-26T05:23:06;99059.59;;;2.57;100.00